Time;durP1;ratioP1;P1;durP2;ratioP2;P2;SDS_P1;SDS_P2;PMS_P1;PMS_P2;Temp;Humidity;BMP_temperature;BMP_pressure;BME280_temperature;BME280_humidity;BME280_pressure;Samples;Min_cycle;Max_cycle;Signal;HPM_P1;HPM_P2
2021/07/13 00:02:25;;;;;;;15.13;13.18;;;;;;;19.65;80.05;96872.63;5001809;28;20153;-60
2021/07/13 00:04:52;;;;;;;15.82;14.20;;;;;;;19.88;80.16;96903.47;5002236;28;20060;-62
2021/07/13 00:07:19;;;;;;;14.02;12.73;;;;;;;19.87;80.54;96902.66;5002515;28;20176;-63
2021/07/13 00:09:46;;;;;;;15.23;13.63;;;;;;;19.60;80.10;96856.28;5004332;28;20568;-60
2021/07/13 00:12:13;;;;;;;15.70;13.30;;;;;;;19.82;80.41;96905.19;5003550;28;20432;-61
2021/07/13 00:14:40;;;;;;;16.35;14.10;;;;;;;20.02;80.56;96936.88;5002796;28;20053;-60
2021/07/13 00:17:07;;;;;;;15.77;13.93;;;;;;;20.07;80.44;96933.56;5003761;28;20072;-61
2021/07/13 00:19:35;;;;;;;14.40;12.65;;;;;;;20.10;80.08;96927.06;5003794;28;20089;-60
2021/07/13 00:22:03;;;;;;;14.63;12.07;;;;;;;19.49;79.67;96836.81;5003695;28;20061;-61
2021/07/13 00:24:30;;;;;;;14.32;12.95;;;;;;;19.98;79.84;96931.31;5002204;28;20065;-62
2021/07/13 00:26:56;;;;;;;14.13;12.70;;;;;;;19.95;79.29;96920.19;5002492;28;20856;-61
2021/07/13 00:29:24;;;;;;;12.27;11.15;;;;;;;20.04;79.28;96942.88;5002723;28;20104;-61
2021/07/13 00:31:50;;;;;;;12.80;11.52;;;;;;;19.77;79.12;96897.25;5003493;28;20057;-61
2021/07/13 00:34:18;;;;;;;14.00;12.00;;;;;;;20.02;79.40;96931.25;5003217;28;20580;-61
2021/07/13 00:36:45;;;;;;;15.00;12.55;;;;;;;20.00;79.27;96928.09;5001039;28;20085;-61
2021/07/13 00:39:12;;;;;;;13.65;12.10;;;;;;;19.83;79.58;96918.00;5003111;28;20054;-61
2021/07/13 00:41:38;;;;;;;14.10;12.70;;;;;;;19.79;79.88;96934.19;5001665;28;20057;-62
2021/07/13 00:44:05;;;;;;;14.40;11.50;;;;;;;19.66;80.12;96936.03;5001979;28;20061;-61
2021/07/13 00:46:46;;;;;;;13.25;11.93;;;;;;;19.69;80.50;96926.75;5001737;28;20524;-62
2021/07/13 00:49:16;;;;;;;13.40;12.02;;;;;;;19.64;80.70;96932.88;5003508;28;20579;-62
2021/07/13 00:51:44;;;;;;;14.02;11.35;;;;;;;19.61;80.14;96933.75;5001612;28;20053;-61
2021/07/13 00:54:12;;;;;;;14.02;11.90;;;;;;;19.21;80.21;96869.06;5003308;28;20061;-61
2021/07/13 00:56:42;;;;;;;18.45;12.43;;;;;;;19.48;80.36;96920.34;5005324;28;20057;-61
2021/07/13 00:59:10;;;;;;;14.38;12.98;;;;;;;19.58;80.78;96935.41;5005549;28;20336;-60
2021/07/13 01:01:37;;;;;;;16.73;13.43;;;;;;;19.70;80.44;96936.75;5006578;28;20517;-61
2021/07/13 01:04:06;;;;;;;16.85;13.45;;;;;;;19.29;79.99;96862.13;5005542;28;20053;-61
2021/07/13 01:07:04;;;;;;;14.00;12.70;;;;;;;19.70;79.91;96936.75;5005508;28;20066;-61
2021/07/13 01:09:43;;;;;;;15.77;11.35;;;;;;;19.61;79.55;96940.16;5002891;28;20089;-62
2021/07/13 01:12:26;;;;;;;13.65;12.32;;;;;;;19.46;80.72;96936.81;5005213;28;20058;-61
2021/07/13 01:14:56;;;;;;;14.67;11.50;;;;;;;19.42;80.43;96938.94;5006961;28;20516;-61
2021/07/13 01:17:32;;;;;;;12.95;11.75;;;;;;;19.40;80.37;96941.38;5005187;28;20129;-61
2021/07/13 01:20:36;;;;;;;12.23;10.93;;;;;;;19.36;80.67;96935.00;5006643;28;20064;-64
2021/07/13 01:23:07;;;;;;;15.90;12.32;;;;;;;19.28;80.86;96933.56;5006777;28;20064;-61
2021/07/13 01:25:55;;;;;;;17.15;11.45;;;;;;;19.25;81.08;96934.38;5005622;28;20058;-61
2021/07/13 01:28:24;;;;;;;12.60;11.40;;;;;;;19.09;81.00;96920.25;5005512;28;20061;-61
2021/07/13 01:30:57;;;;;;;12.80;11.63;;;;;;;19.13;81.48;96931.41;5005170;28;20509;-61
2021/07/13 01:33:27;;;;;;;;;;;;;;;19.02;82.43;96937.22;5007285;28;20054;-61
2021/07/13 01:36:00;;;;;;;12.05;10.95;;;;;;;18.94;83.03;96929.34;5037825;28;19925;-61
2021/07/13 01:38:28;;;;;;;13.52;12.07;;;;;;;18.94;82.63;96935.75;5004784;28;20058;-61
2021/07/13 01:41:08;;;;;;;13.35;11.80;;;;;;;18.93;82.66;96928.56;5004624;28;20050;-61
2021/07/13 01:43:37;;;;;;;14.07;12.63;;;;;;;18.90;83.11;96929.44;5006583;28;20068;-62
2021/07/13 01:46:06;;;;;;;13.88;12.38;;;;;;;18.86;83.26;96922.25;5004605;28;20057;-62
2021/07/13 01:48:34;;;;;;;15.95;13.95;;;;;;;18.87;83.80;96921.06;5006864;28;20524;-62
2021/07/13 01:51:01;;;;;;;15.20;13.27;;;;;;;18.85;83.43;96921.50;5005919;28;20062;-63
2021/07/13 01:53:29;;;;;;;14.10;12.23;;;;;;;18.83;83.72;96935.16;5005778;28;20508;-61
2021/07/13 01:55:57;;;;;;;15.68;12.60;;;;;;;18.41;83.54;96862.94;5005944;28;20061;-62
2021/07/13 01:58:26;;;;;;;13.55;12.18;;;;;;;18.61;83.06;96877.81;5001173;28;20208;-61
2021/07/13 02:00:59;;;;;;;15.25;11.52;;;;;;;18.90;83.34;96918.22;4984950;28;20053;-62
2021/07/13 02:03:28;;;;;;;13.40;11.73;;;;;;;19.06;81.81;96923.91;5017353;28;20437;-61
2021/07/13 02:05:56;;;;;;;13.85;12.40;;;;;;;19.03;81.68;96921.97;5000841;28;20058;-61
2021/07/13 02:08:24;;;;;;;13.70;12.18;;;;;;;19.04;82.22;96929.19;5017701;28;20065;-64
2021/07/13 02:10:51;;;;;;;13.57;12.18;;;;;;;19.03;82.33;96918.38;5001043;28;20055;-61
2021/07/13 02:13:19;;;;;;;15.07;12.73;;;;;;;18.49;81.83;96830.72;4984324;28;20554;-62
2021/07/13 02:15:47;;;;;;;13.25;11.88;;;;;;;19.15;81.07;96929.78;4985036;28;20064;-62
2021/07/13 02:18:14;;;;;;;13.82;12.18;;;;;;;19.09;81.00;96908.22;5017072;28;20057;-61
2021/07/13 02:20:41;;;;;;;14.57;12.32;;;;;;;18.89;80.83;96877.28;5001041;28;20060;-61
2021/07/13 02:23:08;;;;;;;16.42;12.98;;;;;;;19.18;80.89;96926.09;4984476;28;20062;-61
2021/07/13 02:25:36;;;;;;;14.38;11.55;;;;;;;19.13;81.06;96923.78;5001105;28;20058;-61
2021/07/13 02:28:30;;;;;;;15.35;11.93;;;;;;;19.02;81.49;96919.59;4986307;28;20061;-61
2021/07/13 02:31:06;;;;;;;14.10;12.20;;;;;;;18.62;80.69;96862.53;5017109;28;20054;-61
2021/07/13 02:33:44;;;;;;;13.68;12.27;;;;;;;18.99;81.13;96934.47;4986324;28;20100;-61
2021/07/13 02:36:15;;;;;;;13.02;11.45;;;;;;;18.92;81.66;96935.38;5017226;28;20054;-60
2021/07/13 02:38:44;;;;;;;14.18;12.18;;;;;;;18.93;81.50;96931.38;4984834;28;20108;-61
2021/07/13 02:41:13;;;;;;;14.30;12.90;;;;;;;18.73;81.46;96902.44;4986034;28;20065;-61
2021/07/13 02:43:41;;;;;;;15.45;13.90;;;;;;;18.90;81.55;96935.03;5017463;28;20054;-61
2021/07/13 02:46:09;;;;;;;13.30;11.90;;;;;;;18.58;82.21;96895.50;4985547;28;20547;-63
2021/07/13 02:48:40;;;;;;;16.08;12.30;;;;;;;18.61;81.65;96905.88;4984038;28;20080;-61
2021/07/13 02:51:10;;;;;;;15.02;11.85;;;;;;;18.86;81.94;96931.50;4985616;28;20528;-61
2021/07/13 02:53:40;;;;;;;13.85;12.25;;;;;;;18.77;82.64;96928.44;4983969;28;20414;-61
2021/07/13 02:56:09;;;;;;;13.43;11.93;;;;;;;18.41;81.67;96878.97;4985422;28;20054;-60
2021/07/13 02:58:37;;;;;;;14.00;12.20;;;;;;;18.68;82.11;96908.56;4995368;28;20057;-60
2021/07/13 03:01:06;;;;;;;14.75;12.00;;;;;;;18.70;82.53;96934.16;5003542;28;20060;-61
2021/07/13 03:03:35;;;;;;;17.00;12.52;;;;;;;18.74;81.45;96920.88;5003619;28;20512;-61
2021/07/13 03:06:03;;;;;;;16.20;13.40;;;;;;;18.86;81.35;96928.69;5002899;28;20053;-61
2021/07/13 03:08:31;;;;;;;17.10;11.95;;;;;;;18.81;81.38;96920.75;5003009;28;20045;-61
2021/07/13 03:10:58;;;;;;;17.40;13.18;;;;;;;18.70;81.76;96931.34;5004543;28;20060;-61
2021/07/13 03:13:25;;;;;;;14.95;12.20;;;;;;;18.67;82.34;96926.59;5004114;28;20081;-62
2021/07/13 03:15:53;;;;;;;14.98;11.98;;;;;;;18.59;82.30;96901.91;5004751;28;20151;-61
2021/07/13 03:18:21;;;;;;;14.95;11.80;;;;;;;18.48;82.57;96890.84;5003723;28;20053;-61
2021/07/13 03:20:50;;;;;;;12.70;11.40;;;;;;;18.38;82.47;96863.78;5003357;28;20050;-61
2021/07/13 03:23:19;;;;;;;14.60;12.65;;;;;;;18.78;82.27;96927.22;5004502;28;20058;-60
2021/07/13 03:25:48;;;;;;;14.93;11.75;;;;;;;18.86;82.03;96928.69;5003416;28;20441;-60
2021/07/13 03:28:17;;;;;;;14.15;12.57;;;;;;;18.81;81.91;96931.97;5002229;28;20084;-62
2021/07/13 03:30:45;;;;;;;15.85;11.20;;;;;;;18.89;81.94;96925.03;5004368;28;20149;-61
2021/07/13 03:33:13;;;;;;;14.88;12.10;;;;;;;18.99;80.96;96932.47;5002797;28;20942;-61
2021/07/13 03:35:41;;;;;;;13.63;11.75;;;;;;;18.37;80.58;96828.50;5002552;28;20131;-61
2021/07/13 03:38:08;;;;;;;13.68;12.27;;;;;;;19.05;80.74;96925.13;5002478;28;20492;-61
2021/07/13 03:40:35;;;;;;;14.60;12.40;;;;;;;18.64;79.75;96843.28;5004108;28;20515;-60
2021/07/13 03:43:02;;;;;;;13.63;11.82;;;;;;;19.10;80.09;96916.22;5002987;28;20145;-60
2021/07/13 03:45:29;;;;;;;14.77;11.60;;;;;;;19.11;79.79;96900.19;5002859;28;20078;-63
2021/07/13 03:47:59;;;;;;;13.55;11.68;;;;;;;19.27;79.66;96923.53;5002644;28;20595;-61
2021/07/13 03:50:33;;;;;;;11.75;10.68;;;;;;;19.30;79.27;96925.50;5004237;28;20061;-65
2021/07/13 03:53:00;;;;;;;12.82;11.27;;;;;;;18.82;78.54;96828.94;5004194;28;20049;-62
2021/07/13 03:55:27;;;;;;;13.18;10.98;;;;;;;19.43;78.42;96920.84;5003033;28;20436;-60
2021/07/13 03:57:55;;;;;;;19.75;17.17;;;;;;;19.57;78.10;96928.19;4999453;28;20082;-61
2021/07/13 04:00:27;;;;;;;22.55;18.13;;;;;;;19.60;78.58;96926.53;5015749;28;20062;-61
2021/07/13 04:02:54;;;;;;;24.50;16.45;;;;;;;19.73;77.95;96919.06;4998720;28;20058;-61
2021/07/13 04:05:21;;;;;;;21.73;17.40;;;;;;;19.89;77.57;96921.91;4999122;28;20058;-61
2021/07/13 04:07:48;;;;;;;23.08;15.52;;;;;;;20.03;77.12;96924.44;4983799;28;20253;-61
2021/07/13 04:10:16;;;;;;;19.05;13.90;;;;;;;19.83;77.40;96867.41;4984325;28;20062;-63
2021/07/13 04:12:43;;;;;;;14.43;12.40;;;;;;;20.34;76.38;96909.66;4984090;28;20085;-60
2021/07/13 04:15:11;;;;;;;11.82;10.63;;;;;;;20.09;74.74;96866.44;4999095;28;20090;-61
2021/07/13 04:17:38;;;;;;;13.40;10.98;;;;;;;20.54;73.24;96913.19;4982889;28;20145;-62
2021/07/13 04:20:07;;;;;;;12.43;10.27;;;;;;;20.52;71.93;96900.78;4982268;28;20133;-61
2021/07/13 04:22:34;;;;;;;10.50;9.55;;;;;;;20.76;71.42;96924.72;4982685;28;20129;-61
2021/07/13 04:25:04;;;;;;;12.82;10.55;;;;;;;20.67;72.03;96899.22;4983788;28;20513;-63
2021/07/13 04:27:31;;;;;;;12.68;11.35;;;;;;;20.85;71.99;96891.09;4998612;28;20513;-63
2021/07/13 04:29:58;;;;;;;12.30;11.05;;;;;;;20.67;71.84;96848.53;4986656;28;20062;-62
2021/07/13 04:32:30;;;;;;;17.30;12.20;;;;;;;21.28;70.97;96911.31;5018288;28;20066;-62
2021/07/13 04:34:57;;;;;;;22.92;13.70;;;;;;;21.44;70.47;96900.00;4986140;28;20445;-61
2021/07/13 04:37:25;;;;;;;17.23;13.35;;;;;;;21.59;69.90;96891.94;4986484;28;20512;-63
2021/07/13 04:39:52;;;;;;;18.02;13.35;;;;;;;21.49;69.32;96865.63;4987409;28;20456;-60
2021/07/13 04:42:19;;;;;;;18.98;12.75;;;;;;;21.82;69.20;96898.13;4985903;28;20060;-61
2021/07/13 04:44:46;;;;;;;16.83;12.50;;;;;;;21.91;69.21;96901.06;4987554;28;20054;-61
2021/07/13 04:47:13;;;;;;;19.00;12.65;;;;;;;22.03;68.58;96894.69;4987059;28;20065;-60
2021/07/13 04:49:39;;;;;;;17.30;13.07;;;;;;;22.32;67.66;96905.88;4986203;28;20059;-60
2021/07/13 04:52:07;;;;;;;21.17;13.27;;;;;;;22.46;67.69;96913.91;4987506;28;20054;-61
2021/07/13 04:54:34;;;;;;;18.58;13.18;;;;;;;22.71;66.31;96893.34;4985882;28;20073;-60
2021/07/13 04:57:02;;;;;;;14.90;13.25;;;;;;;22.89;64.96;96900.00;4987361;28;20054;-61
2021/07/13 04:59:29;;;;;;;19.00;13.93;;;;;;;23.01;65.37;96890.72;5005616;28;20054;-61
2021/07/13 05:01:56;;;;;;;20.00;15.30;;;;;;;23.02;67.66;96888.66;5006921;28;20068;-63
2021/07/13 05:04:24;;;;;;;21.08;16.00;;;;;;;22.68;68.96;96866.81;5005452;28;20054;-64
2021/07/13 05:06:51;;;;;;;22.02;16.23;;;;;;;22.78;68.74;96864.88;5005171;28;20057;-60
2021/07/13 05:09:19;;;;;;;17.85;16.02;;;;;;;22.99;69.10;96889.56;5005551;28;20076;-63
2021/07/13 05:11:46;;;;;;;22.65;16.50;;;;;;;23.05;68.90;96896.22;5005446;28;20061;-61
2021/07/13 05:14:14;;;;;;;19.42;15.75;;;;;;;23.29;67.81;96900.25;5006008;28;20065;-60
2021/07/13 05:16:41;;;;;;;20.20;15.27;;;;;;;23.48;66.28;96885.81;5005091;28;20057;-60
2021/07/13 05:19:09;;;;;;;21.58;15.88;;;;;;;23.53;66.04;96890.09;5006577;28;20097;-61
2021/07/13 05:21:38;;;;;;;22.25;15.98;;;;;;;23.49;65.07;96886.63;5005029;28;20551;-60
2021/07/13 05:24:05;;;;;;;21.60;15.82;;;;;;;23.51;65.78;96884.09;5006783;28;20054;-61
2021/07/13 05:26:32;;;;;;;20.42;14.23;;;;;;;23.90;64.09;96894.75;5006647;28;20144;-60
2021/07/13 05:29:05;;;;;;;18.67;13.00;;;;;;;24.00;62.66;96885.13;5007051;28;20064;-61
2021/07/13 05:31:33;;;;;;;15.37;11.97;;;;;;;24.30;60.82;96894.88;5005078;28;20045;-60
2021/07/13 05:34:01;;;;;;;13.70;11.65;;;;;;;24.39;60.12;96860.94;5005363;28;20149;-61
2021/07/13 05:36:28;;;;;;;22.08;13.93;;;;;;;24.77;59.24;96889.75;5004297;28;20120;-61
2021/07/13 05:38:55;;;;;;;18.70;13.05;;;;;;;24.99;58.03;96888.38;5004925;28;20508;-62
2021/07/13 05:41:23;;;;;;;13.57;11.93;;;;;;;25.17;57.08;96891.25;5003681;28;20539;-62
2021/07/13 05:43:51;;;;;;;19.42;13.55;;;;;;;25.21;56.46;96886.22;5004659;28;20546;-62
2021/07/13 05:46:18;;;;;;;19.98;13.68;;;;;;;25.11;58.01;96881.81;5004935;28;20468;-64
2021/07/13 05:48:45;;;;;;;15.70;13.30;;;;;;;25.12;56.45;96889.03;5006211;28;20058;-61
2021/07/13 05:51:12;;;;;;;14.32;12.77;;;;;;;25.25;57.04;96861.34;5002412;28;20140;-62
2021/07/13 05:53:39;;;;;;;16.55;13.75;;;;;;;25.60;57.74;96886.59;5004164;28;20049;-61
2021/07/13 05:56:07;;;;;;;20.95;14.10;;;;;;;25.82;56.46;96895.72;5004923;28;20042;-63
2021/07/13 05:58:35;;;;;;;17.80;13.95;;;;;;;25.96;55.63;96892.22;5004416;28;20049;-62
2021/07/13 06:01:03;;;;;;;15.25;13.30;;;;;;;25.81;56.33;96862.94;5005751;28;20587;-59
2021/07/13 06:03:30;;;;;;;16.48;13.40;;;;;;;26.11;56.05;96890.34;5004883;28;20062;-57
2021/07/13 06:05:57;;;;;;;14.82;13.50;;;;;;;26.27;55.82;96892.84;5005837;28;20060;-61
2021/07/13 06:08:24;;;;;;;16.80;14.38;;;;;;;25.88;54.79;96831.34;5036062;28;20137;-59
2021/07/13 06:10:51;;;;;;;14.18;12.90;;;;;;;26.45;53.69;96887.06;5006014;28;20152;-60
2021/07/13 06:13:18;;;;;;;13.68;12.25;;;;;;;26.58;51.45;96890.50;5005248;28;20058;-63
2021/07/13 06:15:46;;;;;;;13.32;11.57;;;;;;;26.22;51.70;96817.59;5003631;28;20432;-62
2021/07/13 06:18:20;;;;;;;13.65;11.43;;;;;;;26.88;50.30;96880.13;5003844;28;20523;-63
2021/07/13 06:20:48;;;;;;;13.75;12.02;;;;;;;27.05;48.90;96879.22;5036292;28;20049;-61
2021/07/13 06:23:15;;;;;;;13.30;12.05;;;;;;;27.14;49.92;96882.00;5005764;28;20046;-59
2021/07/13 06:25:42;;;;;;;12.60;11.45;;;;;;;27.33;47.90;96882.72;5004849;28;20057;-60
2021/07/13 06:28:11;;;;;;;12.75;11.55;;;;;;;27.41;46.78;96873.31;5004751;28;20136;-63
2021/07/13 06:30:39;;;;;;;15.32;12.38;;;;;;;27.35;48.14;96846.81;5004799;28;20046;-63
2021/07/13 06:33:06;;;;;;;12.90;11.65;;;;;;;27.57;46.55;96870.03;5004248;28;20578;-62
2021/07/13 06:35:33;;;;;;;12.07;10.60;;;;;;;26.25;46.00;96645.41;5004993;28;20098;-61
2021/07/13 06:38:01;;;;;;;13.23;11.93;;;;;;;27.84;45.79;96869.00;5004423;28;20148;-59
2021/07/13 06:40:28;;;;;;;12.57;11.35;;;;;;;27.99;45.94;96875.53;5005042;28;20081;-63
2021/07/13 06:42:54;;;;;;;16.50;12.50;;;;;;;28.24;46.03;96877.00;5005181;28;20072;-62
2021/07/13 06:45:21;;;;;;;16.27;13.13;;;;;;;28.43;45.09;96870.63;4994253;28;20054;-60
2021/07/13 06:47:53;;;;;;;12.38;11.27;;;;;;;28.59;45.33;96860.78;4996180;28;20069;-61
2021/07/13 06:50:24;;;;;;;17.83;11.77;;;;;;;28.71;45.03;96859.69;5003995;28;20054;-61
2021/07/13 06:52:52;;;;;;;14.20;11.93;;;;;;;28.83;44.39;96855.75;5003360;28;20054;-61
2021/07/13 06:55:19;;;;;;;14.70;12.82;;;;;;;28.60;44.39;96893.72;5016772;28;20420;-61
2021/07/13 06:57:46;;;;;;;13.90;12.43;;;;;;;28.29;44.46;96822.19;5004432;28;20056;-61
2021/07/13 07:00:13;;;;;;;13.45;11.90;;;;;;;28.86;44.74;96860.44;5003768;28;20061;-61
2021/07/13 07:02:40;;;;;;;13.60;11.88;;;;;;;29.09;43.76;96833.81;5003690;28;20049;-62
2021/07/13 07:05:08;;;;;;;14.75;13.25;;;;;;;29.36;43.09;96853.38;5004287;28;20057;-63
2021/07/13 07:07:48;;;;;;;20.08;15.60;;;;;;;29.58;43.55;96843.03;5003971;28;20072;-65
2021/07/13 07:10:16;;;;;;;13.88;12.38;;;;;;;28.93;43.32;96842.91;5004419;28;20865;-61
2021/07/13 07:12:44;;;;;;;14.10;12.68;;;;;;;29.17;43.70;96820.69;5003419;28;20138;-58
2021/07/13 07:15:12;;;;;;;14.95;12.63;;;;;;;29.36;42.73;96810.56;5003525;28;20048;-57
2021/07/13 07:17:49;;;;;;;13.10;11.82;;;;;;;29.74;42.23;96855.97;5002914;28;20050;-59
2021/07/13 07:20:19;;;;;;;13.90;12.15;;;;;;;29.42;43.07;96785.72;5003294;28;20153;-61
2021/07/13 07:22:47;;;;;;;13.32;11.50;;;;;;;29.63;42.57;96809.31;5003783;28;20473;-57
2021/07/13 07:25:15;;;;;;;13.40;11.98;;;;;;;29.89;41.58;96847.28;5002896;28;20057;-59
2021/07/13 07:27:42;;;;;;;13.23;12.10;;;;;;;29.25;42.05;96830.41;5003170;28;20092;-59
2021/07/13 07:30:11;;;;;;;12.98;11.88;;;;;;;29.22;42.45;96828.56;5003933;28;20053;-61
2021/07/13 07:32:39;;;;;;;12.82;11.82;;;;;;;29.59;42.57;96821.75;5035365;28;20048;-60
2021/07/13 07:35:08;;;;;;;15.20;11.48;;;;;;;29.66;41.82;96814.84;5003844;28;20049;-60
2021/07/13 07:37:36;;;;;;;13.05;11.82;;;;;;;30.03;42.11;96827.19;5002524;28;20081;-62
2021/07/13 07:40:06;;;;;;;12.73;11.45;;;;;;;30.02;41.39;96837.03;5008586;28;20108;-63
2021/07/13 07:42:33;;;;;;;12.25;11.23;;;;;;;30.17;41.31;96834.84;5014446;28;20140;-59
2021/07/13 07:45:00;;;;;;;15.50;11.07;;;;;;;30.07;41.00;96779.16;5002626;28;20062;-60
2021/07/13 07:47:27;;;;;;;12.43;11.25;;;;;;;30.51;40.83;96841.66;5002656;28;20551;-60
2021/07/13 07:49:54;;;;;;;15.90;12.68;;;;;;;30.31;40.87;96831.09;5002905;28;20149;-60
2021/07/13 07:52:20;;;;;;;13.35;11.90;;;;;;;30.42;41.09;96836.91;5003911;28;20054;-61
2021/07/13 07:54:47;;;;;;;12.10;11.05;;;;;;;30.36;40.74;96784.63;5003883;28;20056;-62
2021/07/13 07:57:14;;;;;;;12.48;11.32;;;;;;;30.82;39.64;96831.03;5002279;28;20141;-59
2021/07/13 07:59:41;;;;;;;13.05;11.80;;;;;;;30.73;40.03;96834.03;4990886;28;20054;-62
2021/07/13 08:02:08;;;;;;;12.60;11.38;;;;;;;30.78;40.49;96827.59;4999160;28;20437;-60
2021/07/13 08:04:35;;;;;;;14.13;12.60;;;;;;;30.87;39.91;96812.31;4984048;28;20526;-60
2021/07/13 08:07:02;;;;;;;13.00;11.60;;;;;;;31.27;38.88;96822.69;4982479;28;20512;-60
2021/07/13 08:09:29;;;;;;;16.13;12.50;;;;;;;29.41;39.73;96592.91;4998981;28;20509;-60
2021/07/13 08:11:56;;;;;;;12.30;11.23;;;;;;;30.17;40.98;96802.63;5001769;28;20513;-63
2021/07/13 08:14:23;;;;;;;13.80;12.05;;;;;;;30.55;41.32;96827.91;5034069;28;20160;-63
2021/07/13 08:16:52;;;;;;;13.82;12.60;;;;;;;30.78;40.12;96813.28;5003329;28;20565;-64
2021/07/13 08:19:20;;;;;;;13.07;11.77;;;;;;;30.68;39.08;96826.19;5003343;28;20457;-61
2021/07/13 08:21:46;;;;;;;13.45;12.23;;;;;;;29.37;38.97;96615.97;5003369;28;20062;-58
2021/07/13 08:24:13;;;;;;;12.45;11.45;;;;;;;30.85;37.72;96772.78;5003651;28;20056;-66
2021/07/13 08:26:41;;;;;;;13.15;11.90;;;;;;;31.29;37.48;96829.44;5002099;28;20083;-62
2021/07/13 08:29:08;;;;;;;13.52;12.23;;;;;;;31.42;36.71;96820.44;5003284;28;20520;-62
2021/07/13 08:31:34;;;;;;;12.05;11.02;;;;;;;30.78;35.66;96698.06;5002729;28;20145;-61
2021/07/13 08:34:02;;;;;;;12.20;11.25;;;;;;;30.37;35.01;96646.09;4999594;28;20132;-63
2021/07/13 08:36:29;;;;;;;12.60;11.40;;;;;;;31.65;35.61;96816.31;5002528;28;20049;-61
2021/07/13 08:38:56;;;;;;;14.35;12.95;;;;;;;31.79;35.42;96780.97;5000476;28;20069;-65
2021/07/13 08:41:25;;;;;;;13.07;11.90;;;;;;;32.15;35.62;96805.78;5003400;28;20073;-65
2021/07/13 08:43:52;;;;;;;13.80;12.50;;;;;;;31.69;35.23;96673.63;5002898;28;20172;-62
2021/07/13 08:46:19;;;;;;;19.55;13.07;;;;;;;32.68;34.85;96805.53;5003599;28;20052;-64
2021/07/13 08:48:49;;;;;;;13.15;12.02;;;;;;;32.95;34.43;96796.13;5001355;28;20119;-62
2021/07/13 08:51:19;;;;;;;14.60;13.20;;;;;;;32.79;34.60;96799.78;5003107;28;20054;-60
2021/07/13 08:53:46;;;;;;;16.35;14.85;;;;;;;32.67;34.78;96775.31;5001676;28;20058;-62
2021/07/13 08:56:12;;;;;;;13.02;11.82;;;;;;;32.72;34.84;96800.34;5003051;28;20050;-62
2021/07/13 08:58:39;;;;;;;13.10;11.85;;;;;;;32.79;34.18;96804.75;5003287;28;20042;-61
2021/07/13 09:01:06;;;;;;;13.50;12.25;;;;;;;32.35;34.69;96733.84;5001337;28;20046;-62
2021/07/13 09:03:33;;;;;;;13.63;12.43;;;;;;;31.45;34.76;96716.28;5002648;28;20131;-59
2021/07/13 09:06:00;;;;;;;13.20;12.02;;;;;;;31.86;35.41;96791.94;5001966;28;20046;-62
2021/07/13 09:08:32;;;;;;;12.77;11.55;;;;;;;32.38;34.20;96798.78;5003101;28;20160;-60
2021/07/13 09:11:08;;;;;;;12.45;11.40;;;;;;;32.06;34.71;96806.03;5001776;28;20060;-62
2021/07/13 09:13:38;;;;;;;13.82;12.50;;;;;;;31.47;33.95;96799.63;5000831;28;20133;-63
2021/07/13 09:16:11;;;;;;;12.45;11.23;;;;;;;31.43;34.15;96805.59;4999032;28;20167;-61
2021/07/13 09:18:59;;;;;;;12.98;11.95;;;;;;;31.82;35.06;96777.06;4987315;28;20050;-68
2021/07/13 09:21:33;;;;;;;12.88;11.52;;;;;;;32.44;33.43;96795.94;4986893;28;20064;-62
2021/07/13 09:24:02;;;;;;;12.85;11.65;;;;;;;32.49;32.02;96798.78;5004141;28;20353;-59
2021/07/13 09:26:48;;;;;;;12.40;11.30;;;;;;;32.22;33.01;96796.66;5002190;28;20053;-59
2021/07/13 09:29:40;;;;;;;11.82;10.93;;;;;;;32.30;33.81;96786.25;5005737;28;20053;-62
2021/07/13 09:32:21;;;;;;;12.02;10.70;;;;;;;31.48;35.08;96795.44;5006568;28;20050;-61
2021/07/13 09:34:56;;;;;;;12.45;11.18;;;;;;;31.27;34.59;96797.69;5004620;28;20049;-61
2021/07/13 09:37:47;;;;;;;13.15;12.05;;;;;;;30.36;35.50;96621.69;5005726;28;20463;-60
2021/07/13 09:40:16;;;;;;;15.48;12.57;;;;;;;32.21;34.38;96789.38;5005714;28;20126;-59
2021/07/13 09:42:49;;;;;;;12.90;11.65;;;;;;;32.16;33.58;96793.03;5006275;28;20050;-61
2021/07/13 09:45:28;;;;;;;13.10;12.00;;;;;;;31.87;33.87;96736.19;5006011;28;20080;-60
2021/07/13 09:47:57;;;;;;;12.48;11.38;;;;;;;32.50;33.42;96794.59;5004426;28;20552;-60
2021/07/13 09:50:49;;;;;;;14.82;13.63;;;;;;;32.66;34.47;96785.19;5005580;28;20525;-61
2021/07/13 09:53:18;;;;;;;15.07;13.52;;;;;;;32.42;34.03;96792.78;5005028;28;20085;-61
2021/07/13 09:55:47;;;;;;;13.65;12.25;;;;;;;31.84;33.64;96803.13;5005916;28;20525;-63
2021/07/13 09:58:21;;;;;;;15.57;14.13;;;;;;;32.28;34.31;96795.38;5005725;28;20057;-62
2021/07/13 10:00:59;;;;;;;13.73;12.45;;;;;;;32.87;33.70;96800.81;5005748;28;20089;-63
2021/07/13 10:03:27;;;;;;;11.65;10.75;;;;;;;32.63;33.61;96786.25;5003608;28;20060;-62
2021/07/13 10:05:57;;;;;;;13.25;12.15;;;;;;;32.02;34.01;96748.97;5005003;28;20046;-63
2021/07/13 10:08:25;;;;;;;14.07;12.68;;;;;;;32.71;32.57;96758.59;5002877;28;20108;-63
2021/07/13 10:10:52;;;;;;;13.57;12.45;;;;;;;32.03;34.64;96732.53;5004776;28;20539;-63
2021/07/13 10:13:19;;;;;;;14.70;13.27;;;;;;;33.03;33.64;96773.41;5004643;28;20057;-61
2021/07/13 10:15:49;;;;;;;13.55;12.35;;;;;;;32.29;33.17;96774.00;5003646;28;20068;-64
2021/07/13 10:18:20;;;;;;;15.15;13.77;;;;;;;32.53;34.32;96787.84;5003331;28;20151;-62
2021/07/13 10:20:49;;;;;;;13.63;12.40;;;;;;;32.89;33.38;96786.75;5004794;28;20455;-63
2021/07/13 10:23:17;;;;;;;12.10;11.13;;;;;;;33.43;31.06;96779.28;5004353;28;20259;-63
2021/07/13 10:25:45;;;;;;;12.07;11.18;;;;;;;33.08;29.63;96779.16;5002842;28;20054;-64
2021/07/13 10:28:19;;;;;;;13.02;11.80;;;;;;;32.67;30.64;96775.31;5003396;28;20073;-64
2021/07/13 10:30:46;;;;;;;13.85;12.52;;;;;;;33.39;29.61;96784.53;5004365;28;20050;-64
2021/07/13 10:33:37;;;;;;;12.38;11.43;;;;;;;33.73;28.71;96744.91;5002947;28;20050;-64
2021/07/13 10:36:29;;;;;;;12.48;11.48;;;;;;;34.23;29.37;96776.97;5004584;28;20140;-64
2021/07/13 10:39:35;;;;;;;13.60;12.27;;;;;;;34.15;30.57;96744.38;5004442;28;20056;-63
2021/07/13 10:42:03;;;;;;;14.93;13.57;;;;;;;34.68;31.36;96768.78;4962163;28;20062;-64
2021/07/13 10:44:41;;;;;;;14.05;13.05;;;;;;;34.46;31.10;96766.88;4958556;28;20182;-61
2021/07/13 10:47:20;;;;;;;14.45;13.45;;;;;;;34.85;30.14;96775.13;4969239;28;20057;-61
2021/07/13 10:49:46;;;;;;;14.85;13.48;;;;;;;34.98;29.41;96753.00;5004954;28;20141;-61
2021/07/13 10:52:51;;;;;;;15.27;13.90;;;;;;;34.82;30.35;96770.47;5005021;28;20072;-62
2021/07/13 10:55:31;;;;;;;14.90;12.95;;;;;;;34.57;30.86;96760.25;5003190;28;20067;-63
2021/07/13 10:58:10;;;;;;;13.57;12.25;;;;;;;34.77;30.64;96762.66;5004595;28;20053;-61
2021/07/13 11:00:49;;;;;;;14.10;12.90;;;;;;;34.93;30.77;96753.09;5004317;28;20406;-62
2021/07/13 11:03:37;;;;;;;15.93;14.63;;;;;;;34.90;30.97;96748.41;5004942;28;20140;-60
2021/07/13 11:06:18;;;;;;;15.00;13.60;;;;;;;34.40;31.09;96751.00;5004795;28;20148;-59
2021/07/13 11:08:45;;;;;;;16.10;14.68;;;;;;;33.98;32.13;96742.94;5004863;28;20058;-65
2021/07/13 11:11:14;;;;;;;16.88;15.32;;;;;;;34.31;30.90;96748.41;5005027;28;20057;-62
2021/07/13 11:13:57;;;;;;;16.60;15.10;;;;;;;34.49;31.66;96753.53;5002612;28;20064;-62
2021/07/13 11:16:30;;;;;;;13.65;12.45;;;;;;;35.12;30.28;96742.41;5004786;28;20496;-62
2021/07/13 11:18:58;;;;;;;14.38;13.02;;;;;;;35.53;29.88;96747.91;5004525;28;20053;-63
2021/07/13 11:21:32;;;;;;;13.50;12.40;;;;;;;34.92;29.87;96742.91;5004105;28;20500;-62
2021/07/13 11:24:20;;;;;;;14.48;13.20;;;;;;;35.19;29.65;96747.53;5004469;28;20054;-63
2021/07/13 11:26:53;;;;;;;14.70;13.23;;;;;;;32.33;29.97;96412.41;5002963;28;20468;-62
2021/07/13 11:29:24;;;;;;;12.95;12.05;;;;;;;34.44;29.87;96745.72;5004520;28;20432;-63
2021/07/13 11:31:59;;;;;;;13.20;12.10;;;;;;;35.24;29.35;96726.53;5003020;28;20053;-62